createdAt,value
2018-06-17T00:00:00.878Z,1012.82
2018-06-17T00:01:00.938Z,1012.85
2018-06-17T00:02:01.009Z,1012.81
2018-06-17T00:03:01.075Z,1012.84
2018-06-17T00:04:01.133Z,1012.86
2018-06-17T00:05:01.198Z,1012.85
2018-06-17T00:06:01.261Z,1012.88
2018-06-17T00:07:01.359Z,1012.85
2018-06-17T00:08:01.414Z,1012.84
2018-06-17T00:09:01.462Z,1012.89
2018-06-17T00:10:01.521Z,1012.94
2018-06-17T00:11:01.586Z,1012.97
2018-06-17T00:12:01.663Z,1012.99
2018-06-17T00:13:01.722Z,1012.95
2018-06-17T00:14:01.782Z,1012.97
2018-06-17T00:15:01.846Z,1013.00
2018-06-17T00:16:01.910Z,1012.97
2018-06-17T00:17:01.982Z,1012.97
2018-06-17T00:18:02.049Z,1013.06
2018-06-17T00:19:02.107Z,1013.08
2018-06-17T00:20:02.170Z,1013.06
2018-06-17T00:21:02.238Z,1013.09
2018-06-17T00:22:02.498Z,1013.06
2018-06-17T00:23:02.370Z,1013.06
2018-06-17T00:24:02.430Z,1013.04
2018-06-17T00:25:02.502Z,1013.08
2018-06-17T00:26:02.562Z,1013.06
2018-06-17T00:27:02.648Z,1013.07
2018-06-17T00:28:02.694Z,1013.09
2018-06-17T00:29:02.754Z,1013.12
2018-06-17T00:30:02.821Z,1013.11
2018-06-17T00:31:02.882Z,1013.11
2018-06-17T00:32:02.955Z,1013.10
2018-06-17T00:33:03.019Z,1013.07
2018-06-17T00:34:03.078Z,1013.08
2018-06-17T00:35:03.143Z,1013.02
2018-06-17T00:36:03.206Z,1013.00
2018-06-17T00:37:03.290Z,1013.01
2018-06-17T00:38:03.334Z,1013.04
2018-06-17T00:39:03.404Z,1013.05
2018-06-17T00:40:03.467Z,1013.01
2018-06-17T00:41:03.531Z,1013.05
2018-06-17T00:42:03.618Z,1013.00
2018-06-17T00:43:03.670Z,1013.01
2018-06-17T00:44:03.723Z,1013.02
2018-06-17T00:45:03.791Z,1013.02
2018-06-17T00:46:03.855Z,1013.01
2018-06-17T00:47:03.927Z,1013.02
2018-06-17T00:48:03.995Z,1013.01
2018-06-17T00:49:04.047Z,1012.97
2018-06-17T00:50:04.115Z,1013.00
2018-06-17T00:51:04.183Z,1013.01
2018-06-17T00:52:04.243Z,1012.97
2018-06-17T00:53:04.331Z,1013.03
2018-06-17T00:54:04.371Z,1013.03
2018-06-17T00:55:04.436Z,1013.03
2018-06-17T00:56:04.503Z,1013.04
2018-06-17T00:57:04.567Z,1013.03
2018-06-17T00:58:04.678Z,1013.07
2018-06-17T00:59:04.704Z,1013.08
2018-06-17T01:00:04.808Z,1013.03
2018-06-17T01:01:04.827Z,1013.04
2018-06-17T01:02:04.895Z,1013.06
2018-06-17T01:03:04.964Z,1013.05
2018-06-17T01:04:05.028Z,1013.07
2018-06-17T01:05:05.084Z,1013.03
2018-06-17T01:06:05.151Z,1013.02
2018-06-17T01:07:05.215Z,1013.02
2018-06-17T01:08:05.299Z,1013.01
2018-06-17T01:09:05.496Z,1013.02
2018-06-17T01:10:05.408Z,1013.01
2018-06-17T01:11:05.472Z,1013.04
2018-06-17T01:12:05.536Z,1013.04
2018-06-17T01:13:05.613Z,1013.07
2018-06-17T01:14:05.672Z,1013.15
2018-06-17T01:15:05.736Z,1013.14
2018-06-17T01:16:05.796Z,1013.16
2018-06-17T01:17:05.860Z,1013.20
2018-06-17T01:18:05.929Z,1013.15
2018-06-17T01:19:05.997Z,1013.15
2018-06-17T01:20:06.060Z,1013.20
2018-06-17T01:21:06.117Z,1013.17
2018-06-17T01:22:06.184Z,1013.20
2018-06-17T01:23:06.251Z,1013.21
2018-06-17T01:24:06.313Z,1013.21
2018-06-17T01:25:06.392Z,1013.20
2018-06-17T01:26:06.440Z,1013.26
2018-06-17T01:27:06.505Z,1013.27
2018-06-17T01:28:06.569Z,1013.26
2018-06-17T01:29:06.633Z,1013.26
2018-06-17T01:30:06.706Z,1013.24
2018-06-17T01:31:06.772Z,1013.24
2018-06-17T01:32:06.829Z,1013.23
2018-06-17T01:33:06.893Z,1013.23
2018-06-17T01:34:06.957Z,1013.19
2018-06-17T01:35:07.029Z,1013.20
2018-06-17T01:36:07.093Z,1013.19
2018-06-17T01:37:07.152Z,1013.15
2018-06-17T01:38:07.213Z,1013.17
2018-06-17T01:39:07.281Z,1013.14
2018-06-17T01:40:07.353Z,1013.15
2018-06-17T01:41:07.413Z,1013.21
2018-06-17T01:42:07.473Z,1013.15
2018-06-17T01:43:07.541Z,1013.19
2018-06-17T01:44:07.601Z,1013.18
2018-06-17T01:45:07.674Z,1013.18
2018-06-17T01:46:07.738Z,1013.18
2018-06-17T01:47:07.793Z,1013.14
2018-06-17T01:48:07.862Z,1013.16
2018-06-17T01:49:07.921Z,1013.17
2018-06-17T01:50:07.994Z,1013.20
2018-06-17T01:51:08.066Z,1013.23
2018-06-17T01:52:08.118Z,1013.27
2018-06-17T01:53:08.182Z,1013.23
2018-06-17T01:54:08.246Z,1013.20
2018-06-17T01:55:08.430Z,1013.14
2018-06-17T01:56:08.378Z,1013.09
2018-06-17T01:57:08.438Z,1013.09
2018-06-17T01:58:08.606Z,1013.06
2018-06-17T01:59:08.630Z,1013.06
2018-06-17T02:00:08.640Z,1013.08
2018-06-17T02:01:08.705Z,1013.05
2018-06-17T02:02:08.762Z,1013.07
2018-06-17T02:03:08.826Z,1013.07
2018-06-17T02:04:08.890Z,1013.04
2018-06-17T02:05:08.959Z,1013.03
2018-06-17T02:06:09.022Z,1013.08
2018-06-17T02:07:09.082Z,1013.07
2018-06-17T02:08:09.146Z,1013.09
2018-06-17T02:09:09.210Z,1013.11
2018-06-17T02:10:09.306Z,1013.11
2018-06-17T02:11:09.339Z,1013.06
2018-06-17T02:12:09.402Z,1013.02
2018-06-17T02:13:09.467Z,1013.03
2018-06-17T02:14:09.531Z,1013.04
2018-06-17T02:15:09.646Z,1013.03
2018-06-17T02:16:09.671Z,1013.04
2018-06-17T02:17:09.724Z,1013.09
2018-06-17T02:18:09.788Z,1013.08
2018-06-17T02:19:09.855Z,1013.10
2018-06-17T02:20:09.935Z,1013.12
2018-06-17T02:21:09.987Z,1013.13
2018-06-17T02:22:10.047Z,1013.10
2018-06-17T02:23:10.111Z,1013.09
2018-06-17T02:24:10.242Z,1013.09
2018-06-17T02:25:10.355Z,1013.13
2018-06-17T02:26:10.303Z,1013.12
2018-06-17T02:27:10.367Z,1013.13
2018-06-17T02:28:10.439Z,1013.16
2018-06-17T02:29:10.495Z,1013.13
2018-06-17T02:30:10.572Z,1013.12
2018-06-17T02:31:10.644Z,1013.11
2018-06-17T02:32:10.692Z,1013.10
2018-06-17T02:33:10.752Z,1013.11
2018-06-17T02:34:10.832Z,1013.11
2018-06-17T02:35:10.892Z,1013.13
2018-06-17T02:36:10.952Z,1013.11
2018-06-17T02:37:11.016Z,1013.14
2018-06-17T02:38:11.076Z,1013.13
2018-06-17T02:39:11.140Z,1013.10
2018-06-17T02:40:11.204Z,1013.16
2018-06-17T02:41:11.444Z,1013.11
2018-06-17T02:42:11.333Z,1013.14
2018-06-17T02:43:11.397Z,1013.15
2018-06-17T02:44:11.460Z,1013.15
2018-06-17T02:45:11.527Z,1013.17
2018-06-17T02:46:11.597Z,1013.18
2018-06-17T02:47:11.660Z,1013.23
2018-06-17T02:48:11.717Z,1013.29
2018-06-17T02:49:11.785Z,1013.25
2018-06-17T02:50:11.849Z,1013.27
2018-06-17T02:51:11.917Z,1013.27
2018-06-17T02:52:11.989Z,1013.25
2018-06-17T02:53:12.037Z,1013.26
2018-06-17T02:54:12.109Z,1013.30
2018-06-17T02:55:12.169Z,1013.28
2018-06-17T02:56:12.253Z,1013.26
2018-06-17T02:57:12.297Z,1013.26
2018-06-17T02:58:12.361Z,1013.28
2018-06-17T02:59:12.426Z,1013.25
2018-06-17T03:00:12.489Z,1013.30
2018-06-17T03:01:12.561Z,1013.27
2018-06-17T03:02:12.625Z,1013.26
2018-06-17T03:03:12.681Z,1013.27
2018-06-17T03:04:12.746Z,1013.31
2018-06-17T03:05:12.810Z,1013.28
2018-06-17T03:06:12.882Z,1013.33
2018-06-17T03:07:12.945Z,1013.35
2018-06-17T03:08:13.013Z,1013.33
2018-06-17T03:09:13.070Z,1013.31
2018-06-17T03:10:13.202Z,1013.30
2018-06-17T03:11:13.305Z,1013.30
2018-06-17T03:12:13.266Z,1013.35
2018-06-17T03:13:13.326Z,1013.37
2018-06-17T03:14:13.399Z,1013.33
2018-06-17T03:15:13.453Z,1013.36
2018-06-17T03:16:13.530Z,1013.37
2018-06-17T03:17:13.590Z,1013.35
2018-06-17T03:18:13.662Z,1013.32
2018-06-17T03:19:13.714Z,1013.32
2018-06-17T03:20:13.782Z,1013.36
2018-06-17T03:21:13.870Z,1013.33
2018-06-17T03:22:13.913Z,1013.43
2018-06-17T03:23:13.970Z,1013.42
2018-06-17T03:24:14.034Z,1013.44
2018-06-17T03:25:14.102Z,1013.47
2018-06-17T03:26:14.176Z,1013.47
2018-06-17T03:27:14.346Z,1013.45
2018-06-17T03:28:14.294Z,1013.45
2018-06-17T03:29:14.360Z,1013.43
2018-06-17T03:30:14.423Z,1013.44
2018-06-17T03:31:14.486Z,1013.43
2018-06-17T03:32:14.559Z,1013.40
2018-06-17T03:33:14.670Z,1013.43
2018-06-17T03:34:14.682Z,1013.43
2018-06-17T03:35:14.743Z,1013.44
2018-06-17T03:36:14.806Z,1013.43
2018-06-17T03:37:14.882Z,1013.46
2018-06-17T03:38:14.962Z,1013.43
2018-06-17T03:39:15.004Z,1013.42
2018-06-17T03:40:15.080Z,1013.40
2018-06-17T03:41:15.131Z,1013.36
2018-06-17T03:42:15.231Z,1013.32
2018-06-17T03:43:15.259Z,1013.35
2018-06-17T03:44:15.323Z,1013.35
2018-06-17T03:45:15.387Z,1013.36
2018-06-17T03:46:15.455Z,1013.35
2018-06-17T03:47:15.523Z,1013.34
2018-06-17T03:48:15.591Z,1013.41
2018-06-17T03:49:15.647Z,1013.39
2018-06-17T03:50:15.711Z,1013.43
2018-06-17T03:51:15.779Z,1013.41
2018-06-17T03:52:15.847Z,1013.43
2018-06-17T03:53:15.915Z,1013.43
2018-06-17T03:54:15.972Z,1013.51
2018-06-17T03:55:16.038Z,1013.52
2018-06-17T03:56:16.103Z,1013.52
2018-06-17T03:57:16.191Z,1013.60
2018-06-17T03:58:16.227Z,1013.58
2018-06-17T03:59:16.292Z,1013.59
2018-06-17T04:00:16.356Z,1013.54
2018-06-17T04:01:16.419Z,1013.53
2018-06-17T04:02:16.492Z,1013.51
2018-06-17T04:03:16.556Z,1013.53
2018-06-17T04:04:16.621Z,1013.51
2018-06-17T04:05:16.680Z,1013.54
2018-06-17T04:06:16.748Z,1013.57
2018-06-17T04:07:16.816Z,1013.58
2018-06-17T04:08:16.880Z,1013.57
2018-06-17T04:09:16.936Z,1013.53
2018-06-17T04:10:17.020Z,1013.53
2018-06-17T04:11:17.078Z,1013.52
2018-06-17T04:12:17.240Z,1013.54
2018-06-17T04:13:17.197Z,1013.56
2018-06-17T04:14:17.264Z,1013.57
2018-06-17T04:15:17.324Z,1013.59
2018-06-17T04:16:17.388Z,1013.59
2018-06-17T04:17:17.460Z,1013.57
2018-06-17T04:18:17.552Z,1013.54
2018-06-17T04:19:17.589Z,1013.57
2018-06-17T04:20:17.649Z,1013.61
2018-06-17T04:21:17.709Z,1013.59
2018-06-17T04:22:17.785Z,1013.57
2018-06-17T04:23:17.852Z,1013.59
2018-06-17T04:24:17.909Z,1013.64
2018-06-17T04:25:17.998Z,1013.65
2018-06-17T04:26:18.065Z,1013.66
2018-06-17T04:27:18.106Z,1013.66
2018-06-17T04:28:18.349Z,1013.59
2018-06-17T04:29:18.229Z,1013.61
2018-06-17T04:30:18.301Z,1013.65
2018-06-17T04:31:18.389Z,1013.69
2018-06-17T04:32:18.425Z,1013.69
2018-06-17T04:33:18.497Z,1013.67
2018-06-17T04:34:18.562Z,1013.66
2018-06-17T04:35:18.621Z,1013.65
2018-06-17T04:36:18.689Z,1013.62
2018-06-17T04:37:18.753Z,1013.62
2018-06-17T04:38:18.821Z,1013.63
2018-06-17T04:39:18.885Z,1013.59
2018-06-17T04:40:18.941Z,1013.64
2018-06-17T04:41:19.013Z,1013.64
2018-06-17T04:42:19.073Z,1013.60
2018-06-17T04:43:19.297Z,1013.59
2018-06-17T04:44:19.208Z,1013.59
2018-06-17T04:45:19.265Z,1013.61
2018-06-17T04:46:19.333Z,1013.64
2018-06-17T04:47:19.398Z,1013.59
2018-06-17T04:48:19.474Z,1013.61
2018-06-17T04:49:19.537Z,1013.58
2018-06-17T04:50:19.589Z,1013.53
2018-06-17T04:51:19.670Z,1013.54
2018-06-17T04:52:19.722Z,1013.59
2018-06-17T04:53:19.794Z,1013.58
2018-06-17T04:54:19.858Z,1013.58
2018-06-17T04:55:19.918Z,1013.57
2018-06-17T04:56:19.981Z,1013.58
2018-06-17T04:57:20.050Z,1013.60
2018-06-17T04:58:20.414Z,1013.60
2018-06-17T04:59:20.178Z,1013.67
2018-06-17T05:00:20.238Z,1013.66
2018-06-17T05:01:20.307Z,1013.64
2018-06-17T05:02:20.375Z,1013.65
2018-06-17T05:03:20.443Z,1013.63
2018-06-17T05:04:20.512Z,1013.64
2018-06-17T05:05:20.568Z,1013.64
2018-06-17T05:06:20.631Z,1013.66
2018-06-17T05:07:20.695Z,1013.63
2018-06-17T05:08:20.768Z,1013.66
2018-06-17T05:09:20.831Z,1013.66
2018-06-17T05:10:20.891Z,1013.63
2018-06-17T05:11:20.999Z,1013.64
2018-06-17T05:12:21.019Z,1013.63
2018-06-17T05:13:21.331Z,1013.71
2018-06-17T05:14:21.147Z,1013.72
2018-06-17T05:15:21.215Z,1013.74
2018-06-17T05:16:21.283Z,1013.82
2018-06-17T05:17:21.347Z,1013.84
2018-06-17T05:18:21.419Z,1013.79
2018-06-17T05:19:21.483Z,1013.77
2018-06-17T05:20:21.544Z,1013.79
2018-06-17T05:21:21.608Z,1013.83
2018-06-17T05:22:21.672Z,1013.86
2018-06-17T05:23:21.747Z,1013.89
2018-06-17T05:24:21.812Z,1013.90
2018-06-17T05:25:21.871Z,1013.92
2018-06-17T05:26:21.980Z,1013.92
2018-06-17T05:27:21.999Z,1013.93
2018-06-17T05:28:22.072Z,1013.92
2018-06-17T05:29:22.152Z,1013.90
2018-06-17T05:30:22.196Z,1013.88
2018-06-17T05:31:22.276Z,1013.89
2018-06-17T05:32:22.328Z,1013.87
2018-06-17T05:33:22.403Z,1013.87
2018-06-17T05:34:22.472Z,1013.86
2018-06-17T05:35:22.533Z,1013.84
2018-06-17T05:36:22.594Z,1013.87
2018-06-17T05:37:22.657Z,1013.83
2018-06-17T05:38:22.791Z,1013.87
2018-06-17T05:39:22.796Z,1013.86
2018-06-17T05:40:22.852Z,1013.90
2018-06-17T05:41:22.924Z,1013.87
2018-06-17T05:42:22.984Z,1013.86
2018-06-17T05:43:23.060Z,1013.89
2018-06-17T05:44:23.125Z,1013.95
2018-06-17T05:45:23.185Z,1013.93
2018-06-17T05:46:23.253Z,1014.02
2018-06-17T05:47:23.317Z,1014.11
2018-06-17T05:48:23.388Z,1014.16
2018-06-17T05:49:23.453Z,1014.14
2018-06-17T05:50:23.513Z,1014.10
2018-06-17T05:51:23.581Z,1014.10
2018-06-17T05:52:23.646Z,1014.10
2018-06-17T05:53:23.717Z,1014.11
2018-06-17T05:54:23.785Z,1014.12
2018-06-17T05:55:23.847Z,1014.13
2018-06-17T05:56:23.941Z,1014.16
2018-06-17T05:57:23.977Z,1014.23
2018-06-17T05:58:24.049Z,1014.21
2018-06-17T05:59:24.122Z,1014.26
2018-06-17T06:00:24.173Z,1014.27
2018-06-17T06:01:24.241Z,1014.29
2018-06-17T06:02:24.309Z,1014.33
2018-06-17T06:03:24.388Z,1014.31
2018-06-17T06:04:24.445Z,1014.36
2018-06-17T06:05:24.509Z,1014.36
2018-06-17T06:06:24.574Z,1014.37
2018-06-17T06:07:24.646Z,1014.39
2018-06-17T06:08:24.721Z,1014.40
2018-06-17T06:09:24.783Z,1014.40
2018-06-17T06:10:24.911Z,1014.47
2018-06-17T06:11:24.909Z,1014.60
2018-06-17T06:12:24.973Z,1015.02
2018-06-17T06:13:25.050Z,1015.22
2018-06-17T06:14:25.118Z,1015.42
2018-06-17T06:15:25.178Z,1015.25
2018-06-17T06:16:25.262Z,1015.11
2018-06-17T06:17:25.332Z,1015.02
2018-06-17T06:18:25.389Z,1015.07
2018-06-17T06:19:25.454Z,1015.53
2018-06-17T06:20:25.521Z,1016.09
2018-06-17T06:21:25.798Z,1015.47
2018-06-17T06:22:25.713Z,1015.11
2018-06-17T06:23:25.726Z,1015.20
2018-06-17T06:24:25.794Z,1015.18
2018-06-17T06:25:25.854Z,1014.90
2018-06-17T06:26:25.922Z,1014.87
2018-06-17T06:27:25.990Z,1014.81
2018-06-17T06:28:26.066Z,1014.94
2018-06-17T06:29:26.134Z,1015.05
2018-06-17T06:30:26.194Z,1015.00
2018-06-17T06:31:26.267Z,1015.10
2018-06-17T06:32:26.334Z,1015.29
2018-06-17T06:33:26.407Z,1015.82
2018-06-17T06:34:26.478Z,1015.80
2018-06-17T06:35:26.539Z,1016.14
2018-06-17T06:36:26.608Z,1016.19
2018-06-17T06:37:26.679Z,1016.35
2018-06-17T06:38:26.803Z,1016.44
2018-06-17T06:39:26.824Z,1016.57
2018-06-17T06:40:26.888Z,1016.57
2018-06-17T06:41:26.964Z,1016.09
2018-06-17T06:42:27.026Z,1015.52
2018-06-17T06:43:27.127Z,1015.70
2018-06-17T06:44:27.171Z,1015.72
2018-06-17T06:45:27.243Z,1015.41
2018-06-17T06:46:27.335Z,1015.32
2018-06-17T06:47:27.388Z,1015.00
2018-06-17T06:48:27.471Z,1014.92
2018-06-17T06:49:27.535Z,1014.92
2018-06-17T06:50:27.599Z,1014.90
2018-06-17T06:51:27.694Z,1014.88
2018-06-17T06:52:27.743Z,1014.90
2018-06-17T06:53:27.820Z,1014.96
2018-06-17T06:54:28.067Z,1015.09
2018-06-17T06:55:28.220Z,1015.29
2018-06-17T06:56:28.030Z,1015.37
2018-06-17T06:57:28.104Z,1015.32
2018-06-17T06:58:28.515Z,1015.39
2018-06-17T06:59:28.247Z,1015.27
2018-06-17T07:00:28.315Z,1014.89
2018-06-17T07:01:28.469Z,1015.00
2018-06-17T07:02:28.504Z,1015.03
2018-06-17T07:03:28.540Z,1015.32
2018-06-17T07:04:28.616Z,1015.31
2018-06-17T07:05:28.684Z,1015.37
2018-06-17T07:06:28.752Z,1015.53
2018-06-17T07:07:28.823Z,1015.56
2018-06-17T07:08:28.916Z,1015.86
2018-06-17T07:09:28.976Z,1015.55
2018-06-17T07:10:29.036Z,1015.39
2018-06-17T07:11:29.124Z,1015.30
2018-06-17T07:12:29.192Z,1015.33
2018-06-17T07:13:29.284Z,1015.43
2018-06-17T07:14:29.332Z,1015.39
2018-06-17T07:15:29.404Z,1015.39
2018-06-17T07:16:29.476Z,1015.38
2018-06-17T07:17:29.549Z,1015.37
2018-06-17T07:18:29.632Z,1015.38
2018-06-17T07:19:29.703Z,1015.41
2018-06-17T07:20:29.776Z,1015.18
2018-06-17T07:21:30.173Z,1014.97
2018-06-17T07:22:29.915Z,1015.14
2018-06-17T07:23:29.988Z,1015.13
2018-06-17T07:24:30.061Z,1015.20
2018-06-17T07:25:30.132Z,1015.05
2018-06-17T07:26:30.201Z,1015.08
2018-06-17T07:27:30.278Z,1015.12
2018-06-17T07:28:30.661Z,1015.02
2018-06-17T07:29:30.419Z,1015.02
2018-06-17T07:30:30.613Z,1015.07
2018-06-17T07:31:30.781Z,1015.15
2018-06-17T07:32:30.629Z,1015.09
2018-06-17T07:33:30.995Z,1015.20
2018-06-17T07:34:30.780Z,1015.21
2018-06-17T07:35:30.845Z,1015.37
2018-06-17T07:36:30.921Z,1014.98
2018-06-17T07:37:30.989Z,1014.87
2018-06-17T07:38:31.138Z,1014.83
2018-06-17T07:39:31.521Z,1014.85
2018-06-17T07:40:31.205Z,1014.88
2018-06-17T07:41:31.273Z,1014.91
2018-06-17T07:42:31.666Z,1014.95
2018-06-17T07:43:31.422Z,1015.10
2018-06-17T07:44:31.497Z,1015.21
2018-06-17T07:45:31.558Z,1015.30
2018-06-17T07:46:31.622Z,1015.32
2018-06-17T07:47:31.694Z,1015.21
2018-06-17T07:48:31.778Z,1015.21
2018-06-17T07:49:32.182Z,1015.20
2018-06-17T07:50:32.050Z,1015.25
2018-06-17T07:51:32.438Z,1015.29
2018-06-17T07:52:32.053Z,1015.30
2018-06-17T07:53:32.322Z,1015.29
2018-06-17T07:54:32.263Z,1015.31
2018-06-17T07:55:32.318Z,1015.26
2018-06-17T07:56:32.338Z,1015.27
2018-06-17T07:57:32.410Z,1015.28
2018-06-17T07:58:32.483Z,1015.39
2018-06-17T07:59:32.562Z,1015.40
2018-06-17T08:00:32.638Z,1015.32
2018-06-17T08:01:32.698Z,1015.06
2018-06-17T08:02:32.774Z,1015.20
2018-06-17T08:03:32.847Z,1015.22
2018-06-17T08:04:32.932Z,1015.17
2018-06-17T08:05:33.291Z,1015.21
2018-06-17T08:06:33.435Z,1015.14
2018-06-17T08:07:33.134Z,1015.28
2018-06-17T08:08:33.207Z,1015.18
2018-06-17T08:09:33.583Z,1015.14
2018-06-17T08:10:33.351Z,1015.09
2018-06-17T08:11:33.427Z,1015.08
2018-06-17T08:12:33.495Z,1015.26
2018-06-17T08:13:33.567Z,1015.00
2018-06-17T08:14:33.646Z,1014.95
2018-06-17T08:15:33.723Z,1014.91
2018-06-17T08:16:33.783Z,1015.10
2018-06-17T08:17:33.855Z,1015.06
2018-06-17T08:18:33.933Z,1015.03
2018-06-17T08:19:34.004Z,1015.00
2018-06-17T08:20:34.081Z,1014.88
2018-06-17T08:21:34.139Z,1014.95
2018-06-17T08:22:34.215Z,1014.86
2018-06-17T08:23:34.283Z,1014.95
2018-06-17T08:24:34.819Z,1014.94
2018-06-17T08:25:34.424Z,1014.90
2018-06-17T08:26:34.500Z,1014.91
2018-06-17T08:27:34.868Z,1014.89
2018-06-17T08:28:34.640Z,1015.05
2018-06-17T08:29:35.543Z,1015.02
2018-06-17T08:30:34.869Z,1014.97
2018-06-17T08:31:34.843Z,1014.96
2018-06-17T08:32:34.916Z,1014.92
2018-06-17T08:33:34.984Z,1014.94
2018-06-17T08:34:35.064Z,1014.93
2018-06-17T08:35:35.649Z,1014.90
2018-06-17T08:36:35.239Z,1014.91
2018-06-17T08:37:35.268Z,1014.93
2018-06-17T08:38:35.336Z,1014.79
2018-06-17T08:39:35.413Z,1014.90
2018-06-17T08:40:35.480Z,1014.86
2018-06-17T08:41:35.548Z,1014.84
2018-06-17T08:42:35.617Z,1014.81
2018-06-17T08:43:35.693Z,1014.78
2018-06-17T08:44:36.272Z,1014.72
2018-06-17T08:45:35.844Z,1014.74
2018-06-17T08:46:35.892Z,1014.73
2018-06-17T08:47:35.965Z,1014.75
2018-06-17T08:48:36.033Z,1014.75
2018-06-17T08:49:36.924Z,1014.77
2018-06-17T08:50:36.176Z,1014.80
2018-06-17T08:51:36.608Z,1014.83
2018-06-17T08:52:36.309Z,1014.86
2018-06-17T08:53:36.383Z,1014.93
2018-06-17T08:54:37.201Z,1014.83
2018-06-17T08:55:36.525Z,1014.70
2018-06-17T08:56:36.594Z,1014.75
2018-06-17T08:57:36.657Z,1014.75
2018-06-17T08:58:37.141Z,1014.70
2018-06-17T08:59:36.815Z,1014.74
2018-06-17T09:00:36.873Z,1014.71
2018-06-17T09:01:37.457Z,1014.72
2018-06-17T09:02:37.005Z,1014.71
2018-06-17T09:03:37.077Z,1014.75
2018-06-17T09:04:37.153Z,1014.73
2018-06-17T09:05:37.215Z,1014.75
2018-06-17T09:06:37.293Z,1014.75
2018-06-17T09:07:37.353Z,1014.73
2018-06-17T09:08:37.421Z,1014.72
2018-06-17T09:09:37.505Z,1014.74
2018-06-17T09:10:37.570Z,1014.74
2018-06-17T09:11:37.634Z,1014.78
2018-06-17T09:12:37.706Z,1014.76
2018-06-17T09:13:37.766Z,1014.84
2018-06-17T09:14:37.850Z,1014.77
2018-06-17T09:15:37.918Z,1014.80
2018-06-17T09:16:37.979Z,1014.82
2018-06-17T09:17:38.788Z,1014.76
2018-06-17T09:18:38.466Z,1014.79
2018-06-17T09:19:38.202Z,1014.76
2018-06-17T09:20:38.254Z,1014.84
2018-06-17T09:21:38.695Z,1014.83
2018-06-17T09:22:38.398Z,1014.84
2018-06-17T09:23:38.466Z,1014.89
2018-06-17T09:24:38.902Z,1014.85
2018-06-17T09:25:38.614Z,1014.91
2018-06-17T09:26:38.676Z,1014.89
2018-06-17T09:27:38.747Z,1014.80
2018-06-17T09:28:39.218Z,1014.85
2018-06-17T09:29:38.898Z,1014.81
2018-06-17T09:30:39.871Z,1014.80
2018-06-17T09:31:39.582Z,1014.89
2018-06-17T09:32:39.090Z,1014.79
2018-06-17T09:33:39.274Z,1014.89
2018-06-17T09:34:39.538Z,1014.81
2018-06-17T09:35:39.298Z,1014.89
2018-06-17T09:36:39.367Z,1014.84
2018-06-17T09:37:39.438Z,1014.82
2018-06-17T09:38:39.531Z,1014.88
2018-06-17T09:39:39.586Z,1014.83
2018-06-17T09:40:39.695Z,1014.83
2018-06-17T09:41:39.719Z,1014.74
2018-06-17T09:42:39.786Z,1014.78
2018-06-17T09:43:39.855Z,1014.74
2018-06-17T09:44:39.942Z,1014.79
2018-06-17T09:45:40.012Z,1014.78
2018-06-17T09:46:40.067Z,1014.82
2018-06-17T09:47:40.333Z,1014.84
2018-06-17T09:48:40.203Z,1014.82
2018-06-17T09:49:40.294Z,1014.78
2018-06-17T09:50:40.343Z,1014.81
2018-06-17T09:51:40.419Z,1014.90
2018-06-17T09:52:40.483Z,1014.85
2018-06-17T09:53:40.567Z,1014.87
2018-06-17T09:54:41.579Z,1014.82
2018-06-17T09:55:41.496Z,1014.84
2018-06-17T09:56:41.320Z,1014.82
2018-06-17T09:57:41.303Z,1014.80
2018-06-17T09:58:41.359Z,1014.79
2018-06-17T09:59:41.807Z,1014.76
2018-06-17T10:00:41.916Z,1014.82
2018-06-17T10:01:41.563Z,1014.77
2018-06-17T10:02:41.640Z,1014.80
2018-06-17T10:03:41.248Z,1014.75
2018-06-17T10:04:41.316Z,1014.79
2018-06-17T10:05:41.700Z,1014.84
2018-06-17T10:06:41.496Z,1014.85
2018-06-17T10:07:41.531Z,1014.83
2018-06-17T10:08:41.592Z,1014.79
2018-06-17T10:09:41.660Z,1014.81
2018-06-17T10:10:41.736Z,1014.78
2018-06-17T10:11:41.808Z,1014.82
2018-06-17T10:12:42.330Z,1014.86
2018-06-17T10:13:42.240Z,1014.84
2018-06-17T10:14:42.519Z,1014.86
2018-06-17T10:15:42.901Z,1014.84
2018-06-17T10:16:42.706Z,1014.88
2018-06-17T10:17:42.812Z,1014.85
2018-06-17T10:18:42.770Z,1014.81
2018-06-17T10:19:42.964Z,1014.77
2018-06-17T10:20:43.121Z,1014.80
2018-06-17T10:21:43.452Z,1014.77
2018-06-17T10:22:43.089Z,1014.87
2018-06-17T10:23:43.061Z,1014.85
2018-06-17T10:24:43.229Z,1014.83
2018-06-17T10:25:43.253Z,1014.86
2018-06-17T10:26:44.153Z,1014.84
2018-06-17T10:27:42.909Z,1014.84
2018-06-17T10:28:43.224Z,1014.78
2018-06-17T10:29:43.285Z,1014.79
2018-06-17T10:30:43.393Z,1014.78
2018-06-17T10:31:43.425Z,1014.79
2018-06-17T10:32:43.712Z,1014.78
2018-06-17T10:33:43.573Z,1014.76
2018-06-17T10:34:43.441Z,1014.84
2018-06-17T10:35:43.697Z,1014.93
2018-06-17T10:36:43.761Z,1014.84
2018-06-17T10:37:43.992Z,1014.83
2018-06-17T10:38:44.049Z,1014.91
2018-06-17T10:39:43.985Z,1014.83
2018-06-17T10:40:44.049Z,1014.87
2018-06-17T10:41:44.122Z,1014.88
2018-06-17T10:42:44.325Z,1014.90
2018-06-17T10:43:44.393Z,1014.91
2018-06-17T10:44:44.333Z,1014.82
2018-06-17T10:45:44.393Z,1014.82
2018-06-17T10:46:44.498Z,1014.83
2018-06-17T10:47:44.802Z,1014.88
2018-06-17T10:48:44.609Z,1014.79
2018-06-17T10:49:44.437Z,1014.79
2018-06-17T10:50:44.505Z,1014.77
2018-06-17T10:51:44.577Z,1014.75
2018-06-17T10:52:44.653Z,1014.78
2018-06-17T10:53:44.722Z,1014.82
2018-06-17T10:54:44.785Z,1014.77
2018-06-17T10:55:44.994Z,1014.77
2018-06-17T10:56:44.926Z,1014.81
2018-06-17T10:57:45.002Z,1014.81
2018-06-17T10:58:45.070Z,1014.84
2018-06-17T10:59:45.134Z,1014.84
2018-06-17T11:00:45.221Z,1014.83
2018-06-17T11:01:45.269Z,1014.84
2018-06-17T11:02:45.341Z,1014.85
2018-06-17T11:03:45.426Z,1014.81
2018-06-17T11:04:45.478Z,1014.83
2018-06-17T11:05:45.651Z,1014.85
2018-06-17T11:06:45.643Z,1014.86
2018-06-17T11:07:45.686Z,1014.96
2018-06-17T11:08:45.771Z,1014.99
2018-06-17T11:09:45.831Z,1015.00
2018-06-17T11:10:45.898Z,1015.00
2018-06-17T11:11:45.963Z,1015.01
2018-06-17T11:12:46.035Z,1014.96
2018-06-17T11:13:46.244Z,1015.01
2018-06-17T11:14:46.179Z,1014.96
2018-06-17T11:15:46.239Z,1015.01
2018-06-17T11:16:46.307Z,1014.90
2018-06-17T11:17:46.379Z,1014.93
2018-06-17T11:18:46.455Z,1014.93
2018-06-17T11:19:46.537Z,1014.97
2018-06-17T11:20:46.591Z,1014.95
2018-06-17T11:21:46.657Z,1014.91
2018-06-17T11:22:46.727Z,1014.87
2018-06-17T11:23:46.810Z,1014.88
2018-06-17T11:24:46.883Z,1014.90
2018-06-17T11:25:46.936Z,1014.90
2018-06-17T11:26:47.008Z,1014.92
2018-06-17T11:27:47.087Z,1014.82
2018-06-17T11:28:47.172Z,1014.93
2018-06-17T11:29:47.212Z,1014.90
2018-06-17T11:30:47.284Z,1014.89
2018-06-17T11:31:47.351Z,1014.93
2018-06-17T11:32:47.419Z,1014.90
2018-06-17T11:33:47.499Z,1014.91
2018-06-17T11:34:47.568Z,1014.96
2018-06-17T11:35:47.634Z,1014.94
2018-06-17T11:36:47.703Z,1015.02
2018-06-17T11:37:48.164Z,1014.96
2018-06-17T11:38:48.378Z,1015.00
2018-06-17T11:39:48.528Z,1014.96
2018-06-17T11:40:48.388Z,1014.98
2018-06-17T11:41:48.448Z,1014.95
2018-06-17T11:42:48.116Z,1015.00
2018-06-17T11:43:48.188Z,1014.99
2018-06-17T11:44:48.299Z,1014.98
2018-06-17T11:45:48.533Z,1015.00
2018-06-17T11:46:48.400Z,1014.98
2018-06-17T11:47:48.464Z,1014.99
2018-06-17T11:48:48.532Z,1015.02
2018-06-17T11:49:48.609Z,1015.01
2018-06-17T11:50:48.693Z,1015.00
2018-06-17T11:51:48.740Z,1014.98
2018-06-17T11:52:48.808Z,1014.98
2018-06-17T11:53:48.877Z,1015.03
2018-06-17T11:54:48.964Z,1014.98
2018-06-17T11:55:49.022Z,1014.99
2018-06-17T11:56:49.081Z,1015.00
2018-06-17T11:57:49.148Z,1015.01
2018-06-17T11:58:49.230Z,1015.07
2018-06-17T11:59:49.313Z,1014.97
2018-06-17T12:00:49.509Z,1015.03
2018-06-17T12:01:49.466Z,1015.09
2018-06-17T12:02:49.492Z,1015.07
2018-06-17T12:03:49.561Z,1015.04
2018-06-17T12:04:49.629Z,1015.06
2018-06-17T12:05:49.705Z,1015.07